AirNav   Advertisement
 
 1572 users online  

AZ72 Police & Public Safety Building Heliport
Phoenix, Arizona, USA

GOING TO PHOENIX?


FAA INFORMATION EFFECTIVE 20 JULY 2017

Location

FAA Identifier: AZ72
Lat/Long: 33-26-55.1570N / 112-04-55.5350W
33-26.919283N / 112-04.925583W
33.4486547 / -112.0820931
(estimated)
Elevation: 1146 ft. / 349 m (estimated)
Variation: 13E (1985)
From city: 1 mile W of PHOENIX, AZ
Time zone: UTC -7 (year round; does not observe DST)
Zip code: 85003

Heliport Operations

Heliport use: Private use. Permission required prior to landing
Activation date: 11/1983
Control tower: no
ARTCC: ALBUQUERQUE CENTER
FSS: PRESCOTT FLIGHT SERVICE STATION
Attendance: UNATNDD
Wind indicator: yes
Segmented circle: no
Lights: FOR PERIMETER LIGHTS CALL 602-262-6474.

Heliport Communications

WX ASOS at PHX (4 nm E): PHONE 602-231-8557
WX AWOS-3 at GEU (12 nm NW): 119.425 (623-877-8609)
WX ASOS at SDL (14 nm NE): PHONE 480-483-3049
WX ASOS at DVT (14 nm N): PHONE 623-587-7764
WX AWOS-3 at CHD (17 nm SE): PHONE 480-814-9952

Nearby radio navigation aids

VOR radial/distance  VOR name  Freq  Var
PXRr268/5.7PHOENIX VORTAC115.6012E
IWAr279/23.3WILLIE VORTAC113.3013E
TFDr334/34.9STANFIELD VORTAC114.8012E
BXKr076/37.2BUCKEYE VORTAC110.6014E

 
NDB name  Hdg/Dist  Freq  Var  ID
CHANDLER297/17.640712ECHD -.-. .... -..

Heliport Services

Runway Information

Helipad H1

Dimensions: 40 x 40 ft. / 12 x 12 m
Surface: concrete
Runway edge lights: HELIPAD LGTD WITH PERIMETER LIGHTS.
Traffic pattern: leftleft

Heliport Ownership and Management from official FAA records

Ownership: Publicly-owned
Owner: PHOENIX POLICE DEPARTMENT
620 WEST WASHINGTON
PHOENIX, AZ 85003-2187
Phone 602-262-6747
Manager: JOE YAHNER
620 WEST WASHINGTON
PHOENIX, AZ 85003-2187
Phone 602-262-6747

Instrument Procedures

There are no published instrument procedures at AZ72.

Some nearby airports with instrument procedures:

KPHX - Phoenix Sky Harbor International Airport (4 nm E)
KGEU - Glendale Municipal Airport (12 nm NW)
P19 - Stellar Airpark (12 nm SE)
KSDL - Scottsdale Airport (14 nm NE)
KDVT - Phoenix Deer Valley Airport (14 nm N)
KGYR - Phoenix Goodyear Airport (15 nm W)
KLUF - Luke Air Force Base (16 nm W)
KCHD - Chandler Municipal Airport (17 nm SE)
KFFZ - Falcon Field Airport (18 nm E)
 
Loc | Ops | Rwys | IFR | FBO | Links
Com | Nav | Svcs | Stats | Notes


 
Area around AZ72 (Police & Public Safety Building Heliport)
 
Road maps at: MapQuest Bing Google
 
Aerial photo
No photo
 
Sectional chart

 
Airport distance calculator
Flying to Police & Public Safety Building Heliport? Find the distance to fly.

From to AZ72

Sunrise and sunset
Times for 28-Jul-2017
 Local
(UTC-7)
 Zulu
(UTC)
Morning civil twilight05:1212:12
Sunrise05:3912:39
Sunset19:3002:30
Evening civil twilight19:5802:58

Current date and time
Zulu (UTC)  28-Jul-2017 16:56:13
Local (UTC-7)  28-Jul-2017 09:56:13
 
METAR
KPHX 
2nm SE 
281551Z 10005KT 10SM FEW100 SCT140 BKN180 31/18 A2994 RMK AO2 SLP118 VCSH S SHRA DSNT NE T03060183
KGEU 
12nm NW 
281547Z VRB03KT 10SM SCT150 BKN200 32/19 A2996
KSDL 
13nm NE 
281553Z 17003KT 10SM CLR 29/19 A2998 RMK AO2 SLP124 T02940194
KDVT 
14nm N 
281553Z 09003KT 10SM CLR 30/19 A2996 RMK AO2 SLP119 T03000194
KGYR 
14nm W 
281547Z 12010KT 10SM SCT120 BKN180 BKN250 31/20 A2995
KLUF 
15nm W 
281558Z 15004KT 10SM BKN220 32/19 A2993 RMK AO2A DZB02E11 SLP119 P0000 T03210185 $
KCHD 
17nm SE 
281547Z 05005KT 10SM SCT120 BKN200 28/21 A2996
KFFZ 
18nm E 
281451Z VRB05KT 40SM BKN200 BKN250 28/21 A2998
TAF
KPHX 
2nm SE 
281430Z 2815/2918 14010KT P6SM VCSH FEW100 SCT150 BKN200 FM281600 15008KT P6SM FEW100 BKN200 FM281900 25006KT P6SM SCT100 BKN200 FM290200 08010G20KT P6SM FEW080 BKN100 BKN200 FM290500 13010KT P6SM BKN100 BKN250
KSDL 
13nm NE 
281312Z 2813/2912 VRB04KT P6SM FEW120 BKN250 FM281400 VRB04KT P6SM VCSH SCT100 BKN150 BKN250 FM281600 VRB04KT P6SM SCT100 SCT150 BKN250 FM282100 24008KT P6SM SCT100 BKN250 FM290200 14010G20KT P6SM FEW080 BKN100 BKN250 FM290500 14006KT P6SM BKN100 BKN250
KLUF 
15nm W 
281203Z 2812/2918 12009KT 9999 FEW100 BKN250 QNH2986INS BECMG 2817/2818 21009KT 9999 BKN100 BKN200 QNH2984INS BECMG 2900/2901 21010G15KT 9000 -SHRA VCTS BKN050CB BKN200 QNH2978INS TEMPO 2901/2904 VRB20G30KT 4800 TSRA BECMG 2906/2907 24009KT 9999 VCSH BKN050 OVC100 QNH2982INS BECMG 2911/2912 21009KT 9000 -SHRA VCTS BKN050CB OVC080 QNH2986INS TX40/2821Z TN31/2813Z
NOTAMs
Click for the latest NOTAMs
NOTAMs are issued by the DoD/FAA and will open in a separate window not controlled by AirNav.

 

 
 

Would you like to see your business listed on this page?

 If your business provides an interesting product or service to pilots, flight crews, aircraft, or users of the Police & Public Safety Building Heliport, you should consider listing it here.  To start the listing process, click on the button below
 
Add a business
 

Other Pages about Police & Public Safety Building Heliport

Update a link
 
Copyright © AirNav, LLC. All rights reserved. Privacy Policy  Contact